createdAt,value
2019-04-11T00:00:33.281Z,11.00
2019-04-11T00:03:05.061Z,10.90
2019-04-11T00:05:34.911Z,11.00
2019-04-11T00:08:03.889Z,10.90
2019-04-11T00:10:33.318Z,10.70
2019-04-11T00:13:14.305Z,10.50
2019-04-11T00:15:34.908Z,10.60
2019-04-11T00:18:03.593Z,10.50
2019-04-11T00:20:32.539Z,10.70
2019-04-11T00:23:02.741Z,10.40
2019-04-11T00:25:31.666Z,10.30
2019-04-11T00:28:01.965Z,10.30
2019-04-11T00:30:30.542Z,10.30
2019-04-11T00:33:00.089Z,10.40
2019-04-11T00:35:31.429Z,10.40
2019-04-11T00:38:01.526Z,10.30
2019-04-11T00:40:30.217Z,10.40
2019-04-11T00:43:05.221Z,10.40
2019-04-11T00:45:35.920Z,10.30
2019-04-11T00:48:11.437Z,10.40
2019-04-11T00:50:40.245Z,10.40
2019-04-11T00:53:09.776Z,10.40
2019-04-11T00:55:39.742Z,10.20
2019-04-11T00:58:10.150Z,10.20
2019-04-11T01:00:39.750Z,10.20
2019-04-11T01:03:09.634Z,10.20
2019-04-11T01:05:39.351Z,10.20
2019-04-11T01:08:11.497Z,10.00
2019-04-11T01:10:41.434Z,9.90
2019-04-11T01:13:11.175Z,9.90
2019-04-11T01:15:41.398Z,10.10
2019-04-11T01:18:11.907Z,10.00
2019-04-11T01:20:40.526Z,10.00
2019-04-11T01:23:09.117Z,10.20
2019-04-11T01:25:38.850Z,10.10
2019-04-11T01:28:07.578Z,10.00
2019-04-11T01:30:40.901Z,10.00
2019-04-11T01:33:09.538Z,9.80
2019-04-11T01:35:39.527Z,9.90
2019-04-11T01:38:08.311Z,9.90
2019-04-11T01:40:37.871Z,9.90
2019-04-11T01:43:08.036Z,10.00
2019-04-11T01:45:37.832Z,9.80
2019-04-11T01:48:23.719Z,9.80
2019-04-11T01:50:53.547Z,9.70
2019-04-11T01:53:24.701Z,9.60
2019-04-11T01:55:53.564Z,9.60
2019-04-11T01:58:22.531Z,9.60
2019-04-11T02:00:56.770Z,9.60
2019-04-11T02:03:39.436Z,9.60
2019-04-11T02:06:08.340Z,9.50
2019-04-11T02:08:37.611Z,9.40
2019-04-11T02:11:07.095Z,9.40
2019-04-11T02:13:36.337Z,9.20
2019-04-11T02:16:05.070Z,9.30
2019-04-11T02:18:33.795Z,9.30
2019-04-11T02:21:03.207Z,9.40
2019-04-11T02:23:46.012Z,9.40
2019-04-11T02:26:16.774Z,9.40
2019-04-11T02:28:46.713Z,9.40
2019-04-11T02:31:17.151Z,9.30
2019-04-11T02:33:46.986Z,9.20
2019-04-11T02:36:16.702Z,9.20
2019-04-11T02:38:54.078Z,9.30
2019-04-11T02:41:19.010Z,9.30
2019-04-11T02:43:49.010Z,9.30
2019-04-11T02:46:28.548Z,9.40
2019-04-11T02:48:49.800Z,9.20
2019-04-11T02:51:18.628Z,9.20
2019-04-11T02:53:47.384Z,9.10
2019-04-11T02:56:17.418Z,9.10
2019-04-11T02:58:48.122Z,9.10
2019-04-11T03:01:17.913Z,9.10
2019-04-11T03:03:47.425Z,9.10
2019-04-11T03:06:17.556Z,9.10
2019-04-11T03:08:48.822Z,9.00
2019-04-11T03:11:19.182Z,9.00
2019-04-11T03:13:50.432Z,9.00
2019-04-11T03:16:32.795Z,8.90
2019-04-11T03:19:05.651Z,8.90
2019-04-11T03:21:24.460Z,8.80
2019-04-11T03:23:53.020Z,8.80
2019-04-11T03:26:24.921Z,8.90
2019-04-11T03:28:56.606Z,8.90
2019-04-11T03:32:04.711Z,8.80
2019-04-11T03:34:44.559Z,8.90
2019-04-11T03:39:15.282Z,8.80
2019-04-11T03:41:42.759Z,8.80
2019-04-11T03:44:03.606Z,8.90
2019-04-11T03:46:42.124Z,8.90
2019-04-11T03:49:03.781Z,9.00
2019-04-11T03:51:26.293Z,8.90
2019-04-11T03:53:56.790Z,9.00
2019-04-11T03:56:26.657Z,8.90
2019-04-11T03:58:56.022Z,8.90
2019-04-11T04:01:26.811Z,8.90
2019-04-11T04:03:55.820Z,8.90
2019-04-11T04:06:25.573Z,8.90
2019-04-11T04:08:55.951Z,8.90
2019-04-11T04:11:27.654Z,8.90
2019-04-11T04:14:03.358Z,8.70
2019-04-11T04:16:45.657Z,8.60
2019-04-11T04:19:24.860Z,8.40
2019-04-11T04:21:55.432Z,8.40
2019-04-11T04:24:34.841Z,8.30
2019-04-11T04:27:02.245Z,8.50
2019-04-11T04:29:34.829Z,8.40
2019-04-11T04:32:04.967Z,8.40
2019-04-11T04:34:33.935Z,8.50
2019-04-11T04:37:04.218Z,8.40
2019-04-11T04:39:34.513Z,8.40
2019-04-11T04:42:11.385Z,8.40
2019-04-11T04:44:34.286Z,8.40
2019-04-11T04:47:15.319Z,8.40
2019-04-11T04:49:34.528Z,8.50
2019-04-11T04:52:04.056Z,8.30
2019-04-11T04:54:34.754Z,8.40
2019-04-11T04:57:04.974Z,8.40
2019-04-11T04:59:37.485Z,8.40
2019-04-11T05:02:06.582Z,8.40
2019-04-11T05:04:36.117Z,8.40
2019-04-11T05:07:05.332Z,8.40
2019-04-11T05:09:34.149Z,8.30
2019-04-11T05:12:03.426Z,8.40
2019-04-11T05:14:32.163Z,8.40
2019-04-11T05:17:00.700Z,8.30
2019-04-11T05:19:30.007Z,8.20
2019-04-11T05:21:59.928Z,8.40
2019-04-11T05:24:30.500Z,8.30
2019-04-11T05:26:59.886Z,8.20
2019-04-11T05:29:29.231Z,8.20
2019-04-11T05:31:58.937Z,8.10
2019-04-11T05:34:27.989Z,8.10
2019-04-11T05:36:57.623Z,8.10
2019-04-11T05:39:29.562Z,8.20
2019-04-11T05:41:58.764Z,8.10
2019-04-11T05:44:28.408Z,8.20
2019-04-11T05:47:00.679Z,8.30
2019-04-11T05:49:36.667Z,8.30
2019-04-11T05:52:10.294Z,8.40
2019-04-11T05:54:49.456Z,8.40
2019-04-11T05:57:22.855Z,8.30
2019-04-11T05:59:49.964Z,8.40
2019-04-11T06:02:24.821Z,8.40
2019-04-11T06:05:11.049Z,8.40
2019-04-11T06:07:48.557Z,8.50
2019-04-11T06:10:16.189Z,8.50
2019-04-11T06:12:46.315Z,8.40
2019-04-11T06:15:20.006Z,8.30
2019-04-11T06:17:50.312Z,8.20
2019-04-11T06:20:37.568Z,8.40
2019-04-11T06:23:10.378Z,8.40
2019-04-11T06:25:47.169Z,8.40
2019-04-11T06:28:19.951Z,8.50
2019-04-11T06:30:50.760Z,8.70
2019-04-11T06:33:20.992Z,8.60
2019-04-11T06:36:09.546Z,8.60
2019-04-11T06:38:42.768Z,8.70
2019-04-11T06:41:28.445Z,8.70
2019-04-11T06:43:58.683Z,8.60
2019-04-11T06:46:50.516Z,8.70
2019-04-11T06:49:32.548Z,8.60
2019-04-11T06:52:02.655Z,8.60
2019-04-11T06:54:33.079Z,8.50
2019-04-11T06:57:03.442Z,8.70
2019-04-11T06:59:36.583Z,8.90
2019-04-11T07:02:18.048Z,8.90
2019-04-11T07:04:46.319Z,9.00
2019-04-11T07:07:16.439Z,8.90
2019-04-11T07:09:50.075Z,9.10
2019-04-11T07:12:24.940Z,9.30
2019-04-11T07:14:55.172Z,9.30
2019-04-11T07:17:43.725Z,9.30
2019-04-11T07:20:16.625Z,9.40
2019-04-11T07:23:03.756Z,9.30
2019-04-11T07:25:51.661Z,9.30
2019-04-11T07:28:25.342Z,9.30
2019-04-11T07:31:07.756Z,9.20
2019-04-11T07:33:54.166Z,9.30
2019-04-11T07:36:41.017Z,9.40
2019-04-11T07:39:12.719Z,9.50
2019-04-11T07:41:43.815Z,9.50
2019-04-11T07:44:21.845Z,9.70
2019-04-11T07:47:17.259Z,9.90
2019-04-11T07:49:40.887Z,10.00
2019-04-11T07:52:11.119Z,10.10
2019-04-11T07:54:39.723Z,10.20
2019-04-11T07:57:19.373Z,10.30
2019-04-11T07:59:59.940Z,10.30
2019-04-11T08:02:43.291Z,10.40
2019-04-11T08:05:30.242Z,10.40
2019-04-11T08:08:00.662Z,10.30
2019-04-11T08:10:33.730Z,10.40
2019-04-11T08:13:03.826Z,10.50
2019-04-11T08:15:39.954Z,10.50
2019-04-11T08:18:26.395Z,10.40
2019-04-11T08:21:12.810Z,10.70
2019-04-11T08:23:43.537Z,11.00
2019-04-11T08:26:26.258Z,11.40
2019-04-11T08:29:05.351Z,11.90
2019-04-11T08:31:30.639Z,12.50
2019-04-11T08:34:00.325Z,13.20
2019-04-11T08:36:31.616Z,13.50
2019-04-11T08:39:00.606Z,14.00
2019-04-11T08:41:40.141Z,14.30
2019-04-11T08:44:09.829Z,14.60
2019-04-11T08:46:40.070Z,14.70
2019-04-11T08:49:22.001Z,14.80
2019-04-11T08:51:51.662Z,14.80
2019-04-11T08:54:27.427Z,14.90
2019-04-11T08:56:55.969Z,15.40
2019-04-11T08:59:39.710Z,15.80
2019-04-11T09:02:08.679Z,16.30
2019-04-11T09:05:03.973Z,16.60
2019-04-11T09:07:27.562Z,16.60
2019-04-11T09:10:13.874Z,16.90
2019-04-11T09:12:44.824Z,17.10
2019-04-11T09:15:31.620Z,17.40
2019-04-11T09:18:04.700Z,17.60
2019-04-11T09:20:51.772Z,17.90
2019-04-11T09:23:20.377Z,18.10
2019-04-11T09:25:53.207Z,18.40
2019-04-11T09:28:21.887Z,18.80
2019-04-11T09:31:10.637Z,19.10
2019-04-11T09:33:57.428Z,19.20
2019-04-11T09:36:40.831Z,19.40
2019-04-11T09:39:11.367Z,19.70
2019-04-11T09:41:58.210Z,20.30
2019-04-11T09:44:29.163Z,20.90
2019-04-11T09:47:15.476Z,21.40
2019-04-11T09:49:58.315Z,21.50
2019-04-11T09:52:29.012Z,21.60
2019-04-11T09:55:06.517Z,21.70
2019-04-11T09:57:36.715Z,21.90
2019-04-11T10:00:08.651Z,21.80
2019-04-11T10:02:48.375Z,22.00
2019-04-11T10:05:18.484Z,22.10
2019-04-11T10:08:04.997Z,22.20
2019-04-11T10:10:40.297Z,22.30
2019-04-11T10:13:25.076Z,21.60
2019-04-11T10:16:13.623Z,21.30
2019-04-11T10:18:59.968Z,21.00
2019-04-11T10:21:31.088Z,20.30
2019-04-11T10:24:01.422Z,19.30
2019-04-11T10:26:31.974Z,18.60
2019-04-11T10:29:08.675Z,17.80
2019-04-11T10:31:38.995Z,17.20
2019-04-11T10:34:13.198Z,16.70
2019-04-11T10:36:43.535Z,16.20
2019-04-11T10:39:29.152Z,15.90
2019-04-11T10:42:02.304Z,15.50
2019-04-11T10:44:35.938Z,14.90
2019-04-11T10:47:08.348Z,14.90
2019-04-11T10:49:38.673Z,14.80
2019-04-11T10:52:12.022Z,14.90
2019-04-11T10:54:42.335Z,14.50
2019-04-11T10:57:15.959Z,14.40
2019-04-11T10:59:49.032Z,14.50
2019-04-11T11:02:31.642Z,14.50
2019-04-11T11:05:01.071Z,14.70
2019-04-11T11:07:31.070Z,14.60
2019-04-11T11:10:03.870Z,14.40
2019-04-11T11:12:37.158Z,14.20
2019-04-11T11:15:09.287Z,14.60
2019-04-11T11:18:20.529Z,15.00
2019-04-11T11:20:36.527Z,15.80
2019-04-11T11:23:18.297Z,16.80
2019-04-11T11:26:00.736Z,17.90
2019-04-11T11:28:34.322Z,19.00
2019-04-11T11:31:14.104Z,19.80
2019-04-11T11:33:44.888Z,20.50
2019-04-11T11:36:35.919Z,20.60
2019-04-11T11:39:15.629Z,21.00
2019-04-11T11:42:02.213Z,21.70
2019-04-11T11:44:44.711Z,21.60
2019-04-11T11:47:17.599Z,20.80
2019-04-11T11:49:55.539Z,20.70
2019-04-11T11:52:37.497Z,21.20
2019-04-11T11:55:08.653Z,21.80
2019-04-11T11:57:39.230Z,22.40
2019-04-11T12:00:10.330Z,22.90
2019-04-11T12:02:40.458Z,23.10
2019-04-11T12:05:22.651Z,22.70
2019-04-11T12:07:54.479Z,21.80
2019-04-11T12:10:34.072Z,20.70
2019-04-11T12:13:12.827Z,20.00
2019-04-11T12:15:51.119Z,19.30
2019-04-11T12:18:41.839Z,19.00
2019-04-11T12:21:11.866Z,18.40
2019-04-11T12:23:58.299Z,18.00
2019-04-11T12:26:19.891Z,17.70
2019-04-11T12:28:50.309Z,17.40
2019-04-11T12:31:19.723Z,17.20
2019-04-11T12:33:54.003Z,16.90
2019-04-11T12:36:24.231Z,17.00
2019-04-11T12:38:54.893Z,16.80
2019-04-11T12:41:25.717Z,16.60
2019-04-11T12:44:04.622Z,16.70
2019-04-11T12:46:51.209Z,16.70
2019-04-11T12:49:27.013Z,16.60
2019-04-11T12:52:13.353Z,16.60
2019-04-11T12:54:54.959Z,16.60
2019-04-11T12:57:41.345Z,16.70
2019-04-11T13:00:11.400Z,16.60
2019-04-11T13:02:57.764Z,16.60
2019-04-11T13:05:27.297Z,16.70
2019-04-11T13:07:57.449Z,16.60
2019-04-11T13:10:26.072Z,16.50
2019-04-11T13:12:56.221Z,16.30
2019-04-11T13:15:26.483Z,16.40
2019-04-11T13:18:02.107Z,16.40
2019-04-11T13:20:47.410Z,16.40
2019-04-11T13:23:34.123Z,16.50
2019-04-11T13:26:13.342Z,16.40
2019-04-11T13:28:43.428Z,16.30
2019-04-11T13:31:29.754Z,16.30
2019-04-11T13:34:02.709Z,16.40
2019-04-11T13:36:35.629Z,16.50
2019-04-11T13:39:06.322Z,16.40
2019-04-11T13:41:36.577Z,16.40
2019-04-11T13:44:06.783Z,16.20
2019-04-11T13:46:38.596Z,16.10
2019-04-11T13:49:11.751Z,16.00
2019-04-11T13:51:53.802Z,16.10
2019-04-11T13:54:40.235Z,16.20
2019-04-11T13:57:28.567Z,16.30
2019-04-11T14:00:15.556Z,16.20
2019-04-11T14:02:51.123Z,16.30
2019-04-11T14:05:19.298Z,16.40
2019-04-11T14:07:52.234Z,16.40
2019-04-11T14:10:22.286Z,16.20
2019-04-11T14:12:52.473Z,16.30
2019-04-11T14:15:30.118Z,16.30
2019-04-11T14:18:00.197Z,16.40
2019-04-11T14:20:32.795Z,16.40
2019-04-11T14:23:05.778Z,16.40
2019-04-11T14:25:55.521Z,16.50
2019-04-11T14:28:26.498Z,16.60
2019-04-11T14:31:13.027Z,16.50
2019-04-11T14:33:45.870Z,16.50
2019-04-11T14:36:33.602Z,16.60
2019-04-11T14:39:06.090Z,16.60
2019-04-11T14:41:41.564Z,16.60
2019-04-11T14:44:09.509Z,16.70
2019-04-11T14:46:56.128Z,17.20
2019-04-11T14:49:27.117Z,17.80
2019-04-11T14:51:58.421Z,18.70
2019-04-11T14:54:28.947Z,19.50
2019-04-11T14:57:01.734Z,20.00
2019-04-11T14:59:53.846Z,20.60
2019-04-11T15:02:24.485Z,21.00
2019-04-11T15:04:58.584Z,21.20
2019-04-11T15:07:30.401Z,21.30
2019-04-11T15:10:17.867Z,21.30
2019-04-11T15:12:48.152Z,21.60
2019-04-11T15:15:24.715Z,21.90
2019-04-11T15:17:55.897Z,22.10
2019-04-11T15:20:29.455Z,22.30
2019-04-11T15:23:11.850Z,22.40
2019-04-11T15:25:45.179Z,22.60
2019-04-11T15:28:17.363Z,22.80
2019-04-11T15:30:50.440Z,22.90
2019-04-11T15:33:27.389Z,22.80
2019-04-11T15:35:58.556Z,22.70
2019-04-11T15:38:31.704Z,22.60
2019-04-11T15:41:01.927Z,22.60
2019-04-11T15:43:50.196Z,22.80
2019-04-11T15:46:20.335Z,22.90
2019-04-11T15:49:05.813Z,23.00
2019-04-11T15:51:35.851Z,22.90
2019-04-11T15:54:15.279Z,22.80
2019-04-11T15:56:51.931Z,23.00
2019-04-11T15:59:37.333Z,23.00
2019-04-11T16:02:18.064Z,23.10
2019-04-11T16:04:48.263Z,22.80
2019-04-11T16:07:23.345Z,22.60
2019-04-11T16:09:53.566Z,22.40
2019-04-11T16:12:40.049Z,22.40
2019-04-11T16:15:10.596Z,22.30
2019-04-11T16:17:57.856Z,21.80
2019-04-11T16:20:27.669Z,21.30
2019-04-11T16:22:57.853Z,20.90
2019-04-11T16:25:28.870Z,20.50
2019-04-11T16:28:14.983Z,20.20
2019-04-11T16:30:45.408Z,19.80
2019-04-11T16:33:15.634Z,19.30
2019-04-11T16:35:48.726Z,18.90
2019-04-11T16:38:31.221Z,18.60
2019-04-11T16:41:01.522Z,18.40
2019-04-11T16:43:32.080Z,18.10
2019-04-11T16:46:18.650Z,17.90
2019-04-11T16:48:47.233Z,17.60
2019-04-11T16:51:15.766Z,17.60
2019-04-11T16:53:44.193Z,17.50
2019-04-11T16:56:13.288Z,17.40
2019-04-11T16:58:42.013Z,17.20
2019-04-11T17:01:10.581Z,17.00
2019-04-11T17:03:39.167Z,17.00
2019-04-11T17:06:09.485Z,17.10
2019-04-11T17:08:48.718Z,17.00
2019-04-11T17:11:18.945Z,17.10
2019-04-11T17:13:47.698Z,17.20
2019-04-11T17:16:16.690Z,17.00
2019-04-11T17:18:45.271Z,17.00
2019-04-11T17:21:13.884Z,17.10
2019-04-11T17:23:42.461Z,17.00
2019-04-11T17:26:10.953Z,17.00
2019-04-11T17:28:39.631Z,16.90
2019-04-11T17:31:08.216Z,16.80
2019-04-11T17:33:36.772Z,16.80
2019-04-11T17:36:05.355Z,16.60
2019-04-11T17:38:36.891Z,16.40
2019-04-11T17:41:04.179Z,16.40
2019-04-11T17:43:32.742Z,16.50
2019-04-11T17:46:01.534Z,16.60
2019-04-11T17:48:30.542Z,16.60
2019-04-11T17:50:59.001Z,16.30
2019-04-11T17:53:27.706Z,16.20
2019-04-11T17:55:56.394Z,16.10
2019-04-11T17:58:27.262Z,16.10
2019-04-11T18:00:56.922Z,16.00
2019-04-11T18:03:25.485Z,16.00
2019-04-11T18:05:53.966Z,15.90
2019-04-11T18:08:23.099Z,15.90
2019-04-11T18:10:55.786Z,15.90
2019-04-11T18:13:21.866Z,15.90
2019-04-11T18:15:50.445Z,16.00
2019-04-11T18:18:19.163Z,15.80
2019-04-11T18:20:47.739Z,15.70
2019-04-11T18:23:19.613Z,15.80
2019-04-11T18:25:46.542Z,15.50
2019-04-11T18:28:15.106Z,15.50
2019-04-11T18:30:43.893Z,15.50
2019-04-11T18:33:12.496Z,15.50
2019-04-11T18:35:40.978Z,15.40
2019-04-11T18:38:09.533Z,15.40
2019-04-11T18:40:40.274Z,15.30
2019-04-11T18:43:08.357Z,15.40
2019-04-11T18:45:36.940Z,15.40
2019-04-11T18:48:05.448Z,15.30
2019-04-11T18:50:34.001Z,15.20
2019-04-11T18:53:02.587Z,15.00
2019-04-11T18:55:31.170Z,15.10
2019-04-11T18:58:01.649Z,15.20
2019-04-11T19:00:29.865Z,15.30
2019-04-11T19:02:58.505Z,15.40
2019-04-11T19:05:28.957Z,15.30
2019-04-11T19:07:57.233Z,15.20
2019-04-11T19:10:25.701Z,15.20
2019-04-11T19:12:54.287Z,15.20
2019-04-11T19:15:22.771Z,15.00
2019-04-11T19:18:05.310Z,15.00
2019-04-11T19:20:21.699Z,15.00
2019-04-11T19:22:50.397Z,14.90
2019-04-11T19:25:18.970Z,14.90
2019-04-11T19:27:50.466Z,14.70
2019-04-11T19:30:18.050Z,14.70
2019-04-11T19:32:46.533Z,14.70
2019-04-11T19:35:15.038Z,14.70
2019-04-11T19:37:43.518Z,14.60
2019-04-11T19:40:16.096Z,14.30
2019-04-11T19:42:42.189Z,14.10
2019-04-11T19:45:10.774Z,14.20
2019-04-11T19:47:39.361Z,14.10
2019-04-11T19:50:07.973Z,14.00
2019-04-11T19:52:45.207Z,14.20
2019-04-11T19:55:08.344Z,14.20
2019-04-11T19:57:36.974Z,14.20
2019-04-11T20:00:07.818Z,14.20
2019-04-11T20:02:36.477Z,14.10
2019-04-11T20:05:05.921Z,14.00
2019-04-11T20:07:34.590Z,14.00
2019-04-11T20:10:04.170Z,13.90
2019-04-11T20:12:32.758Z,13.90
2019-04-11T20:15:04.670Z,13.80
2019-04-11T20:17:43.417Z,13.60
2019-04-11T20:20:06.544Z,13.50
2019-04-11T20:22:32.022Z,13.50
2019-04-11T20:25:00.577Z,13.50
2019-04-11T20:27:29.186Z,13.60
2019-04-11T20:29:57.768Z,13.60
2019-04-11T20:32:26.502Z,13.40
2019-04-11T20:34:55.036Z,13.40
2019-04-11T20:37:24.579Z,13.30
2019-04-11T20:39:53.197Z,13.30
2019-04-11T20:42:23.785Z,13.30
2019-04-11T20:44:51.852Z,13.30
2019-04-11T20:47:20.487Z,13.30
2019-04-11T20:49:49.276Z,13.30
2019-04-11T20:52:17.984Z,13.10
2019-04-11T20:54:46.566Z,13.20
2019-04-11T20:57:25.221Z,13.20
2019-04-11T20:59:45.274Z,13.50
2019-04-11T21:02:14.033Z,13.50
2019-04-11T21:04:42.824Z,13.50
2019-04-11T21:07:12.408Z,13.50
2019-04-11T21:09:42.494Z,13.60
2019-04-11T21:12:10.976Z,13.50
2019-04-11T21:14:39.498Z,13.50
2019-04-11T21:17:08.105Z,13.60
2019-04-11T21:19:36.682Z,13.60
2019-04-11T21:22:05.370Z,13.60
2019-04-11T21:24:33.938Z,13.50
2019-04-11T21:27:02.556Z,13.40
2019-04-11T21:29:31.297Z,13.30
2019-04-11T21:32:01.081Z,13.40
2019-04-11T21:34:32.404Z,13.30
2019-04-11T21:37:02.560Z,13.00
2019-04-11T21:39:30.625Z,12.80
2019-04-11T21:41:59.249Z,12.90
2019-04-11T21:44:27.949Z,13.10
2019-04-11T21:46:56.485Z,13.10
2019-04-11T21:49:25.075Z,13.00
2019-04-11T21:51:54.296Z,13.00
2019-04-11T21:54:22.859Z,13.00
2019-04-11T21:56:51.457Z,13.10
2019-04-11T21:59:21.024Z,13.10
2019-04-11T22:01:53.802Z,13.00
2019-04-11T22:04:19.975Z,12.90
2019-04-11T22:06:49.777Z,12.80
2019-04-11T22:09:18.439Z,12.80
2019-04-11T22:11:47.151Z,12.60
2019-04-11T22:14:15.635Z,12.60
2019-04-11T22:16:45.351Z,12.70
2019-04-11T22:19:14.510Z,12.70
2019-04-11T22:21:45.300Z,12.80
2019-04-11T22:24:13.858Z,12.70
2019-04-11T22:26:43.842Z,12.70
2019-04-11T22:29:12.446Z,12.80
2019-04-11T22:31:42.641Z,12.60
2019-04-11T22:34:22.086Z,12.60
2019-04-11T22:36:50.563Z,12.60
2019-04-11T22:39:19.370Z,12.60
2019-04-11T22:41:48.029Z,12.50
2019-04-11T22:44:16.610Z,12.50
2019-04-11T22:46:45.298Z,12.50
2019-04-11T22:49:13.801Z,12.40
2019-04-11T22:51:43.500Z,12.40
2019-04-11T22:54:13.235Z,12.40
2019-04-11T22:56:42.410Z,12.50
2019-04-11T23:00:05.986Z,12.40
2019-04-11T23:02:47.344Z,12.50
2019-04-11T23:05:17.418Z,12.30
2019-04-11T23:07:45.961Z,12.20
2019-04-11T23:10:17.119Z,12.30
2019-04-11T23:12:47.331Z,12.10
2019-04-11T23:15:15.944Z,12.20
2019-04-11T23:17:47.056Z,12.20
2019-04-11T23:20:17.694Z,12.20
2019-04-11T23:22:47.878Z,12.30
2019-04-11T23:25:16.358Z,12.20
2019-04-11T23:27:45.068Z,12.10
2019-04-11T23:30:15.980Z,12.10
2019-04-11T23:32:45.481Z,11.90
2019-04-11T23:35:17.298Z,11.90
2019-04-11T23:37:52.077Z,11.90
2019-04-11T23:40:22.290Z,12.00
2019-04-11T23:42:51.101Z,11.90
2019-04-11T23:45:21.393Z,11.80
2019-04-11T23:47:53.089Z,11.80
2019-04-11T23:50:20.336Z,11.90
2019-04-11T23:52:51.718Z,11.80
2019-04-11T23:55:20.230Z,11.90
2019-04-11T23:57:48.841Z,11.70
